sensor_id;sensor_type;location;lat;lon;timestamp;P1;durP1;ratioP1;P2;durP2;ratioP2
22652;SDS011;11493;43.344;26.226;2024-03-08T00:01:13;43.40;;;23.98;;
22652;SDS011;11493;43.344;26.226;2024-03-08T00:03:42;49.80;;;25.55;;
22652;SDS011;11493;43.344;26.226;2024-03-08T00:06:11;47.30;;;24.50;;
22652;SDS011;11493;43.344;26.226;2024-03-08T00:08:39;43.75;;;23.85;;
22652;SDS011;11493;43.344;26.226;2024-03-08T00:11:09;45.58;;;24.27;;
22652;SDS011;11493;43.344;26.226;2024-03-08T00:13:38;52.47;;;25.52;;
22652;SDS011;11493;43.344;26.226;2024-03-08T00:16:06;52.38;;;24.90;;
22652;SDS011;11493;43.344;26.226;2024-03-08T00:18:35;47.15;;;25.23;;
22652;SDS011;11493;43.344;26.226;2024-03-08T00:21:04;47.35;;;26.08;;
22652;SDS011;11493;43.344;26.226;2024-03-08T00:23:32;43.35;;;23.77;;
22652;SDS011;11493;43.344;26.226;2024-03-08T00:26:00;47.13;;;23.65;;
22652;SDS011;11493;43.344;26.226;2024-03-08T00:28:32;46.97;;;24.88;;
22652;SDS011;11493;43.344;26.226;2024-03-08T00:31:01;40.28;;;23.80;;
22652;SDS011;11493;43.344;26.226;2024-03-08T00:33:29;41.72;;;23.80;;
22652;SDS011;11493;43.344;26.226;2024-03-08T00:35:57;42.58;;;23.33;;
22652;SDS011;11493;43.344;26.226;2024-03-08T00:38:26;49.67;;;23.38;;
22652;SDS011;11493;43.344;26.226;2024-03-08T00:40:54;45.90;;;24.02;;
22652;SDS011;11493;43.344;26.226;2024-03-08T00:43:23;50.65;;;24.30;;
22652;SDS011;11493;43.344;26.226;2024-03-08T00:45:54;47.60;;;24.88;;
22652;SDS011;11493;43.344;26.226;2024-03-08T00:48:22;43.92;;;24.08;;
22652;SDS011;11493;43.344;26.226;2024-03-08T00:50:50;47.33;;;23.92;;
22652;SDS011;11493;43.344;26.226;2024-03-08T00:53:19;47.72;;;22.05;;
22652;SDS011;11493;43.344;26.226;2024-03-08T00:55:47;44.15;;;23.05;;
22652;SDS011;11493;43.344;26.226;2024-03-08T00:58:15;38.17;;;21.48;;
22652;SDS011;11493;43.344;26.226;2024-03-08T01:00:43;46.45;;;24.58;;
22652;SDS011;11493;43.344;26.226;2024-03-08T01:03:13;50.13;;;25.48;;
22652;SDS011;11493;43.344;26.226;2024-03-08T01:05:42;49.35;;;24.45;;
22652;SDS011;11493;43.344;26.226;2024-03-08T01:08:10;56.03;;;28.67;;
22652;SDS011;11493;43.344;26.226;2024-03-08T01:10:38;47.35;;;25.33;;
22652;SDS011;11493;43.344;26.226;2024-03-08T01:13:07;48.50;;;24.20;;
22652;SDS011;11493;43.344;26.226;2024-03-08T01:15:36;44.70;;;24.42;;
22652;SDS011;11493;43.344;26.226;2024-03-08T01:18:08;43.35;;;24.73;;
22652;SDS011;11493;43.344;26.226;2024-03-08T01:20:38;45.15;;;23.02;;
22652;SDS011;11493;43.344;26.226;2024-03-08T01:23:06;43.00;;;23.88;;
22652;SDS011;11493;43.344;26.226;2024-03-08T01:25:35;45.38;;;23.33;;
22652;SDS011;11493;43.344;26.226;2024-03-08T01:28:03;48.00;;;23.92;;
22652;SDS011;11493;43.344;26.226;2024-03-08T01:30:31;43.10;;;23.88;;
22652;SDS011;11493;43.344;26.226;2024-03-08T01:33:01;40.65;;;21.83;;
22652;SDS011;11493;43.344;26.226;2024-03-08T01:35:29;46.28;;;22.08;;
22652;SDS011;11493;43.344;26.226;2024-03-08T01:37:59;45.53;;;23.63;;
22652;SDS011;11493;43.344;26.226;2024-03-08T01:40:27;43.42;;;22.35;;
22652;SDS011;11493;43.344;26.226;2024-03-08T01:42:55;47.45;;;23.58;;
22652;SDS011;11493;43.344;26.226;2024-03-08T01:45:23;46.10;;;23.88;;
22652;SDS011;11493;43.344;26.226;2024-03-08T01:47:52;42.63;;;24.38;;
22652;SDS011;11493;43.344;26.226;2024-03-08T01:50:20;42.53;;;23.42;;
22652;SDS011;11493;43.344;26.226;2024-03-08T01:52:48;42.97;;;24.35;;
22652;SDS011;11493;43.344;26.226;2024-03-08T01:55:18;42.22;;;23.98;;
22652;SDS011;11493;43.344;26.226;2024-03-08T01:57:47;45.13;;;24.38;;
22652;SDS011;11493;43.344;26.226;2024-03-08T02:00:17;37.92;;;23.23;;
22652;SDS011;11493;43.344;26.226;2024-03-08T02:02:46;45.85;;;24.17;;
22652;SDS011;11493;43.344;26.226;2024-03-08T02:05:17;46.05;;;23.98;;
22652;SDS011;11493;43.344;26.226;2024-03-08T02:07:45;44.05;;;24.38;;
22652;SDS011;11493;43.344;26.226;2024-03-08T02:10:13;42.63;;;24.02;;
22652;SDS011;11493;43.344;26.226;2024-03-08T02:12:43;49.00;;;24.13;;
22652;SDS011;11493;43.344;26.226;2024-03-08T02:15:12;39.63;;;23.17;;
22652;SDS011;11493;43.344;26.226;2024-03-08T02:17:41;41.55;;;22.70;;
22652;SDS011;11493;43.344;26.226;2024-03-08T02:20:10;36.95;;;22.27;;
22652;SDS011;11493;43.344;26.226;2024-03-08T02:22:41;39.65;;;21.60;;
22652;SDS011;11493;43.344;26.226;2024-03-08T02:25:10;42.20;;;22.40;;
22652;SDS011;11493;43.344;26.226;2024-03-08T02:27:38;43.33;;;24.33;;
22652;SDS011;11493;43.344;26.226;2024-03-08T02:30:07;43.60;;;23.55;;
22652;SDS011;11493;43.344;26.226;2024-03-08T02:32:36;41.88;;;23.23;;
22652;SDS011;11493;43.344;26.226;2024-03-08T02:35:05;43.05;;;23.15;;
22652;SDS011;11493;43.344;26.226;2024-03-08T02:37:33;42.72;;;22.65;;
22652;SDS011;11493;43.344;26.226;2024-03-08T02:40:04;46.45;;;21.63;;
22652;SDS011;11493;43.344;26.226;2024-03-08T02:42:34;46.28;;;24.55;;
22652;SDS011;11493;43.344;26.226;2024-03-08T02:45:02;44.95;;;24.48;;
22652;SDS011;11493;43.344;26.226;2024-03-08T02:47:32;43.27;;;23.67;;
22652;SDS011;11493;43.344;26.226;2024-03-08T02:50:01;51.92;;;24.58;;
22652;SDS011;11493;43.344;26.226;2024-03-08T02:52:30;46.85;;;24.55;;
22652;SDS011;11493;43.344;26.226;2024-03-08T02:54:58;48.45;;;26.58;;
22652;SDS011;11493;43.344;26.226;2024-03-08T02:57:30;53.97;;;26.23;;
22652;SDS011;11493;43.344;26.226;2024-03-08T02:59:58;49.35;;;27.45;;
22652;SDS011;11493;43.344;26.226;2024-03-08T03:02:27;50.53;;;27.55;;
22652;SDS011;11493;43.344;26.226;2024-03-08T03:04:55;52.92;;;27.45;;
22652;SDS011;11493;43.344;26.226;2024-03-08T03:07:23;56.20;;;28.92;;
22652;SDS011;11493;43.344;26.226;2024-03-08T03:09:54;45.25;;;21.88;;
22652;SDS011;11493;43.344;26.226;2024-03-08T03:12:22;53.80;;;28.20;;
22652;SDS011;11493;43.344;26.226;2024-03-08T03:14:52;57.05;;;28.83;;
22652;SDS011;11493;43.344;26.226;2024-03-08T03:17:20;57.92;;;27.60;;
22652;SDS011;11493;43.344;26.226;2024-03-08T03:19:48;64.63;;;29.80;;
22652;SDS011;11493;43.344;26.226;2024-03-08T03:22:16;62.90;;;28.40;;
22652;SDS011;11493;43.344;26.226;2024-03-08T03:24:45;55.53;;;28.85;;
22652;SDS011;11493;43.344;26.226;2024-03-08T03:27:13;57.80;;;27.48;;
22652;SDS011;11493;43.344;26.226;2024-03-08T03:29:42;54.08;;;27.90;;
22652;SDS011;11493;43.344;26.226;2024-03-08T03:32:14;51.63;;;27.00;;
22652;SDS011;11493;43.344;26.226;2024-03-08T03:34:45;52.25;;;25.92;;
22652;SDS011;11493;43.344;26.226;2024-03-08T03:37:13;56.90;;;27.95;;
22652;SDS011;11493;43.344;26.226;2024-03-08T03:39:41;66.25;;;28.15;;
22652;SDS011;11493;43.344;26.226;2024-03-08T03:42:15;58.08;;;28.10;;
22652;SDS011;11493;43.344;26.226;2024-03-08T03:44:44;63.25;;;28.50;;
22652;SDS011;11493;43.344;26.226;2024-03-08T03:47:15;58.00;;;28.10;;
22652;SDS011;11493;43.344;26.226;2024-03-08T03:49:43;65.78;;;28.58;;
22652;SDS011;11493;43.344;26.226;2024-03-08T03:52:12;64.68;;;29.13;;
22652;SDS011;11493;43.344;26.226;2024-03-08T03:54:40;61.25;;;29.95;;
22652;SDS011;11493;43.344;26.226;2024-03-08T03:57:08;72.60;;;33.15;;
22652;SDS011;11493;43.344;26.226;2024-03-08T03:59:37;85.07;;;40.83;;
22652;SDS011;11493;43.344;26.226;2024-03-08T04:02:06;63.08;;;29.42;;
22652;SDS011;11493;43.344;26.226;2024-03-08T04:04:35;62.13;;;29.00;;
22652;SDS011;11493;43.344;26.226;2024-03-08T04:07:03;68.55;;;30.30;;
22652;SDS011;11493;43.344;26.226;2024-03-08T04:09:32;74.75;;;30.48;;
22652;SDS011;11493;43.344;26.226;2024-03-08T04:12:02;68.05;;;31.92;;
22652;SDS011;11493;43.344;26.226;2024-03-08T04:14:31;67.13;;;31.77;;
22652;SDS011;11493;43.344;26.226;2024-03-08T04:16:59;66.60;;;29.75;;
22652;SDS011;11493;43.344;26.226;2024-03-08T04:19:28;73.25;;;31.10;;
22652;SDS011;11493;43.344;26.226;2024-03-08T04:21:57;71.45;;;30.80;;
22652;SDS011;11493;43.344;26.226;2024-03-08T04:26:57;70.80;;;29.83;;
22652;SDS011;11493;43.344;26.226;2024-03-08T04:29:25;79.85;;;30.92;;
22652;SDS011;11493;43.344;26.226;2024-03-08T04:31:53;89.20;;;32.20;;
22652;SDS011;11493;43.344;26.226;2024-03-08T04:34:22;78.78;;;31.95;;
22652;SDS011;11493;43.344;26.226;2024-03-08T04:36:50;76.22;;;31.55;;
22652;SDS011;11493;43.344;26.226;2024-03-08T04:39:21;76.60;;;30.73;;
22652;SDS011;11493;43.344;26.226;2024-03-08T04:41:49;80.53;;;33.00;;
22652;SDS011;11493;43.344;26.226;2024-03-08T04:44:18;80.03;;;33.50;;
22652;SDS011;11493;43.344;26.226;2024-03-08T04:46:46;89.88;;;35.65;;
22652;SDS011;11493;43.344;26.226;2024-03-08T04:49:14;89.72;;;37.90;;
22652;SDS011;11493;43.344;26.226;2024-03-08T04:51:43;71.43;;;30.33;;
22652;SDS011;11493;43.344;26.226;2024-03-08T04:54:12;72.80;;;31.17;;
22652;SDS011;11493;43.344;26.226;2024-03-08T04:56:42;68.47;;;31.30;;
22652;SDS011;11493;43.344;26.226;2024-03-08T04:59:10;77.90;;;32.17;;
22652;SDS011;11493;43.344;26.226;2024-03-08T05:01:38;74.93;;;30.25;;
22652;SDS011;11493;43.344;26.226;2024-03-08T05:04:06;76.03;;;31.65;;
22652;SDS011;11493;43.344;26.226;2024-03-08T05:06:36;74.00;;;29.73;;
22652;SDS011;11493;43.344;26.226;2024-03-08T05:09:04;76.97;;;31.75;;
22652;SDS011;11493;43.344;26.226;2024-03-08T05:11:42;70.63;;;30.95;;
22652;SDS011;11493;43.344;26.226;2024-03-08T05:14:11;80.88;;;30.15;;
22652;SDS011;11493;43.344;26.226;2024-03-08T05:16:43;74.57;;;30.45;;
22652;SDS011;11493;43.344;26.226;2024-03-08T05:19:15;75.20;;;30.80;;
22652;SDS011;11493;43.344;26.226;2024-03-08T05:21:44;76.93;;;31.38;;
22652;SDS011;11493;43.344;26.226;2024-03-08T05:24:12;75.70;;;31.45;;
22652;SDS011;11493;43.344;26.226;2024-03-08T05:26:42;69.55;;;31.17;;
22652;SDS011;11493;43.344;26.226;2024-03-08T05:29:11;78.85;;;31.90;;
22652;SDS011;11493;43.344;26.226;2024-03-08T05:31:43;73.43;;;31.83;;
22652;SDS011;11493;43.344;26.226;2024-03-08T05:34:14;80.30;;;32.13;;
22652;SDS011;11493;43.344;26.226;2024-03-08T05:36:42;85.25;;;35.53;;
22652;SDS011;11493;43.344;26.226;2024-03-08T05:39:11;70.15;;;30.77;;
22652;SDS011;11493;43.344;26.226;2024-03-08T05:41:40;74.75;;;32.25;;
22652;SDS011;11493;43.344;26.226;2024-03-08T05:44:11;70.40;;;31.55;;
22652;SDS011;11493;43.344;26.226;2024-03-08T05:46:39;78.57;;;33.28;;
22652;SDS011;11493;43.344;26.226;2024-03-08T05:49:07;73.88;;;30.77;;
22652;SDS011;11493;43.344;26.226;2024-03-08T05:51:37;73.38;;;31.00;;
22652;SDS011;11493;43.344;26.226;2024-03-08T05:54:07;64.32;;;31.73;;
22652;SDS011;11493;43.344;26.226;2024-03-08T05:56:37;50.50;;;24.70;;
22652;SDS011;11493;43.344;26.226;2024-03-08T05:59:08;76.07;;;30.10;;
22652;SDS011;11493;43.344;26.226;2024-03-08T06:01:37;65.03;;;29.02;;
22652;SDS011;11493;43.344;26.226;2024-03-08T06:04:08;55.13;;;28.38;;
22652;SDS011;11493;43.344;26.226;2024-03-08T06:06:38;65.65;;;29.95;;
22652;SDS011;11493;43.344;26.226;2024-03-08T06:09:07;60.20;;;30.17;;
22652;SDS011;11493;43.344;26.226;2024-03-08T06:11:39;62.25;;;30.77;;
22652;SDS011;11493;43.344;26.226;2024-03-08T06:14:09;64.90;;;31.52;;
22652;SDS011;11493;43.344;26.226;2024-03-08T06:16:37;62.50;;;30.25;;
22652;SDS011;11493;43.344;26.226;2024-03-08T06:19:05;53.47;;;28.50;;
22652;SDS011;11493;43.344;26.226;2024-03-08T06:21:34;58.03;;;28.70;;
22652;SDS011;11493;43.344;26.226;2024-03-08T06:24:02;61.92;;;29.02;;
22652;SDS011;11493;43.344;26.226;2024-03-08T06:26:31;57.85;;;29.27;;
22652;SDS011;11493;43.344;26.226;2024-03-08T06:29:02;53.75;;;28.63;;
22652;SDS011;11493;43.344;26.226;2024-03-08T06:31:34;53.28;;;26.75;;
22652;SDS011;11493;43.344;26.226;2024-03-08T06:34:05;51.58;;;27.33;;
22652;SDS011;11493;43.344;26.226;2024-03-08T06:36:35;53.17;;;25.63;;
22652;SDS011;11493;43.344;26.226;2024-03-08T06:39:04;59.45;;;27.00;;
22652;SDS011;11493;43.344;26.226;2024-03-08T06:41:36;52.05;;;25.73;;
22652;SDS011;11493;43.344;26.226;2024-03-08T06:44:05;51.55;;;27.45;;
22652;SDS011;11493;43.344;26.226;2024-03-08T06:46:36;56.50;;;27.55;;
22652;SDS011;11493;43.344;26.226;2024-03-08T06:49:04;51.65;;;26.42;;
22652;SDS011;11493;43.344;26.226;2024-03-08T06:51:34;54.28;;;26.00;;
22652;SDS011;11493;43.344;26.226;2024-03-08T06:54:02;60.33;;;27.30;;
22652;SDS011;11493;43.344;26.226;2024-03-08T06:56:35;49.22;;;25.10;;
22652;SDS011;11493;43.344;26.226;2024-03-08T06:59:03;49.67;;;27.15;;
22652;SDS011;11493;43.344;26.226;2024-03-08T07:01:31;51.22;;;25.77;;
22652;SDS011;11493;43.344;26.226;2024-03-08T07:04:02;49.92;;;25.48;;
22652;SDS011;11493;43.344;26.226;2024-03-08T07:06:31;47.47;;;24.13;;
22652;SDS011;11493;43.344;26.226;2024-03-08T07:09:00;43.80;;;25.42;;
22652;SDS011;11493;43.344;26.226;2024-03-08T07:11:29;48.05;;;24.95;;
22652;SDS011;11493;43.344;26.226;2024-03-08T07:13:57;55.05;;;26.90;;
22652;SDS011;11493;43.344;26.226;2024-03-08T07:16:25;56.65;;;26.88;;
22652;SDS011;11493;43.344;26.226;2024-03-08T07:18:53;44.83;;;25.00;;
22652;SDS011;11493;43.344;26.226;2024-03-08T07:21:23;65.95;;;31.88;;
22652;SDS011;11493;43.344;26.226;2024-03-08T07:23:51;52.42;;;27.55;;
22652;SDS011;11493;43.344;26.226;2024-03-08T07:26:39;57.20;;;29.10;;
22652;SDS011;11493;43.344;26.226;2024-03-08T07:29:07;59.55;;;31.33;;
22652;SDS011;11493;43.344;26.226;2024-03-08T07:31:35;50.47;;;28.50;;
22652;SDS011;11493;43.344;26.226;2024-03-08T07:36:46;45.28;;;25.52;;
22652;SDS011;11493;43.344;26.226;2024-03-08T07:39:17;54.40;;;27.05;;
22652;SDS011;11493;43.344;26.226;2024-03-08T07:41:45;48.03;;;27.02;;
22652;SDS011;11493;43.344;26.226;2024-03-08T07:44:14;64.28;;;34.55;;
22652;SDS011;11493;43.344;26.226;2024-03-08T07:46:42;44.75;;;24.95;;
22652;SDS011;11493;43.344;26.226;2024-03-08T07:49:10;43.50;;;24.70;;
22652;SDS011;11493;43.344;26.226;2024-03-08T07:51:38;43.50;;;23.23;;
22652;SDS011;11493;43.344;26.226;2024-03-08T07:54:08;87.47;;;42.38;;
22652;SDS011;11493;43.344;26.226;2024-03-08T07:56:36;49.78;;;25.52;;
22652;SDS011;11493;43.344;26.226;2024-03-08T07:59:04;46.95;;;25.13;;
22652;SDS011;11493;43.344;26.226;2024-03-08T08:01:33;46.42;;;26.58;;
22652;SDS011;11493;43.344;26.226;2024-03-08T08:04:01;49.53;;;24.83;;
22652;SDS011;11493;43.344;26.226;2024-03-08T08:06:29;44.80;;;26.27;;
22652;SDS011;11493;43.344;26.226;2024-03-08T08:08:59;59.42;;;30.65;;
22652;SDS011;11493;43.344;26.226;2024-03-08T08:11:29;47.97;;;28.58;;
22652;SDS011;11493;43.344;26.226;2024-03-08T08:13:59;46.53;;;25.05;;
22652;SDS011;11493;43.344;26.226;2024-03-08T08:16:27;44.47;;;24.48;;
22652;SDS011;11493;43.344;26.226;2024-03-08T08:18:55;51.63;;;25.00;;
22652;SDS011;11493;43.344;26.226;2024-03-08T08:21:23;44.33;;;23.77;;
22652;SDS011;11493;43.344;26.226;2024-03-08T08:23:52;46.38;;;25.02;;
22652;SDS011;11493;43.344;26.226;2024-03-08T08:26:21;44.33;;;22.88;;
22652;SDS011;11493;43.344;26.226;2024-03-08T08:28:54;44.58;;;24.27;;
22652;SDS011;11493;43.344;26.226;2024-03-08T08:31:22;46.08;;;23.95;;
22652;SDS011;11493;43.344;26.226;2024-03-08T08:33:50;50.33;;;24.75;;
22652;SDS011;11493;43.344;26.226;2024-03-08T08:36:24;46.75;;;25.23;;
22652;SDS011;11493;43.344;26.226;2024-03-08T08:38:52;50.75;;;25.65;;
22652;SDS011;11493;43.344;26.226;2024-03-08T08:41:21;51.10;;;26.98;;
22652;SDS011;11493;43.344;26.226;2024-03-08T08:43:49;54.88;;;27.40;;
22652;SDS011;11493;43.344;26.226;2024-03-08T08:46:35;64.18;;;31.88;;
22652;SDS011;11493;43.344;26.226;2024-03-08T08:49:07;57.15;;;29.48;;
22652;SDS011;11493;43.344;26.226;2024-03-08T08:51:37;51.13;;;26.08;;
22652;SDS011;11493;43.344;26.226;2024-03-08T08:54:05;49.42;;;27.08;;
22652;SDS011;11493;43.344;26.226;2024-03-08T08:56:37;50.40;;;25.60;;
22652;SDS011;11493;43.344;26.226;2024-03-08T08:59:06;57.42;;;27.83;;
22652;SDS011;11493;43.344;26.226;2024-03-08T09:01:41;58.88;;;28.63;;
22652;SDS011;11493;43.344;26.226;2024-03-08T09:04:09;52.47;;;28.45;;
22652;SDS011;11493;43.344;26.226;2024-03-08T09:06:39;53.22;;;27.25;;
22652;SDS011;11493;43.344;26.226;2024-03-08T09:09:07;58.20;;;27.77;;
22652;SDS011;11493;43.344;26.226;2024-03-08T09:11:37;53.88;;;27.92;;
22652;SDS011;11493;43.344;26.226;2024-03-08T09:14:08;58.50;;;27.77;;
22652;SDS011;11493;43.344;26.226;2024-03-08T09:16:38;52.00;;;28.23;;
22652;SDS011;11493;43.344;26.226;2024-03-08T09:19:08;52.83;;;28.23;;
22652;SDS011;11493;43.344;26.226;2024-03-08T09:21:37;50.07;;;27.17;;
22652;SDS011;11493;43.344;26.226;2024-03-08T09:24:06;60.58;;;32.85;;
22652;SDS011;11493;43.344;26.226;2024-03-08T09:26:34;45.75;;;24.65;;
22652;SDS011;11493;43.344;26.226;2024-03-08T09:29:03;53.15;;;26.35;;
22652;SDS011;11493;43.344;26.226;2024-03-08T09:31:33;50.88;;;26.38;;
22652;SDS011;11493;43.344;26.226;2024-03-08T09:34:01;57.15;;;29.80;;
22652;SDS011;11493;43.344;26.226;2024-03-08T09:36:31;51.97;;;27.30;;
22652;SDS011;11493;43.344;26.226;2024-03-08T09:39:00;41.47;;;23.63;;
22652;SDS011;11493;43.344;26.226;2024-03-08T09:41:28;54.45;;;27.40;;
22652;SDS011;11493;43.344;26.226;2024-03-08T09:43:56;43.30;;;23.50;;
22652;SDS011;11493;43.344;26.226;2024-03-08T09:46:26;46.05;;;25.10;;
22652;SDS011;11493;43.344;26.226;2024-03-08T09:48:55;45.35;;;25.77;;
22652;SDS011;11493;43.344;26.226;2024-03-08T09:51:28;48.30;;;25.23;;
22652;SDS011;11493;43.344;26.226;2024-03-08T09:53:58;46.95;;;25.77;;
22652;SDS011;11493;43.344;26.226;2024-03-08T09:56:37;45.00;;;24.17;;
22652;SDS011;11493;43.344;26.226;2024-03-08T09:59:07;38.88;;;24.35;;
22652;SDS011;11493;43.344;26.226;2024-03-08T10:02:08;42.08;;;24.08;;
22652;SDS011;11493;43.344;26.226;2024-03-08T10:04:42;46.60;;;22.98;;
22652;SDS011;11493;43.344;26.226;2024-03-08T10:07:13;43.95;;;25.85;;
22652;SDS011;11493;43.344;26.226;2024-03-08T10:09:42;42.30;;;24.92;;
22652;SDS011;11493;43.344;26.226;2024-03-08T10:12:16;36.40;;;21.38;;
22652;SDS011;11493;43.344;26.226;2024-03-08T10:14:46;42.58;;;23.48;;
22652;SDS011;11493;43.344;26.226;2024-03-08T10:17:14;41.90;;;22.48;;
22652;SDS011;11493;43.344;26.226;2024-03-08T10:19:49;44.38;;;24.42;;
22652;SDS011;11493;43.344;26.226;2024-03-08T10:22:17;54.05;;;26.05;;
22652;SDS011;11493;43.344;26.226;2024-03-08T10:24:47;41.17;;;23.02;;
22652;SDS011;11493;43.344;26.226;2024-03-08T10:27:16;43.97;;;24.92;;
22652;SDS011;11493;43.344;26.226;2024-03-08T10:29:46;50.92;;;25.98;;
22652;SDS011;11493;43.344;26.226;2024-03-08T10:32:15;42.50;;;23.77;;
22652;SDS011;11493;43.344;26.226;2024-03-08T10:34:43;44.72;;;25.42;;
22652;SDS011;11493;43.344;26.226;2024-03-08T10:37:12;43.00;;;25.55;;
22652;SDS011;11493;43.344;26.226;2024-03-08T10:39:45;39.95;;;21.45;;
22652;SDS011;11493;43.344;26.226;2024-03-08T10:42:25;33.90;;;20.73;;
22652;SDS011;11493;43.344;26.226;2024-03-08T10:44:58;54.75;;;29.25;;
22652;SDS011;11493;43.344;26.226;2024-03-08T10:47:34;42.63;;;22.45;;
22652;SDS011;11493;43.344;26.226;2024-03-08T10:50:10;34.65;;;20.95;;
22652;SDS011;11493;43.344;26.226;2024-03-08T10:52:44;35.25;;;22.33;;
22652;SDS011;11493;43.344;26.226;2024-03-08T10:55:16;39.95;;;23.42;;
22652;SDS011;11493;43.344;26.226;2024-03-08T10:57:47;42.38;;;22.67;;
22652;SDS011;11493;43.344;26.226;2024-03-08T11:00:15;34.50;;;20.25;;
22652;SDS011;11493;43.344;26.226;2024-03-08T11:02:45;39.17;;;22.58;;
22652;SDS011;11493;43.344;26.226;2024-03-08T11:05:15;35.22;;;20.80;;
22652;SDS011;11493;43.344;26.226;2024-03-08T11:08:02;38.22;;;21.27;;
22652;SDS011;11493;43.344;26.226;2024-03-08T11:10:32;39.50;;;22.35;;
22652;SDS011;11493;43.344;26.226;2024-03-08T11:13:01;41.17;;;22.40;;
22652;SDS011;11493;43.344;26.226;2024-03-08T11:15:29;36.00;;;19.90;;
22652;SDS011;11493;43.344;26.226;2024-03-08T11:17:58;38.15;;;21.65;;
22652;SDS011;11493;43.344;26.226;2024-03-08T11:20:28;38.00;;;20.45;;
22652;SDS011;11493;43.344;26.226;2024-03-08T11:23:00;31.07;;;20.63;;
22652;SDS011;11493;43.344;26.226;2024-03-08T11:25:35;32.72;;;19.48;;
22652;SDS011;11493;43.344;26.226;2024-03-08T11:28:08;31.65;;;19.30;;
22652;SDS011;11493;43.344;26.226;2024-03-08T11:30:46;40.33;;;21.30;;
22652;SDS011;11493;43.344;26.226;2024-03-08T11:33:36;35.85;;;19.45;;
22652;SDS011;11493;43.344;26.226;2024-03-08T11:36:10;31.85;;;19.17;;
22652;SDS011;11493;43.344;26.226;2024-03-08T11:38:43;28.17;;;17.90;;
22652;SDS011;11493;43.344;26.226;2024-03-08T11:41:13;40.85;;;20.08;;
22652;SDS011;11493;43.344;26.226;2024-03-08T11:43:46;30.83;;;19.17;;
22652;SDS011;11493;43.344;26.226;2024-03-08T11:46:15;32.28;;;20.13;;
22652;SDS011;11493;43.344;26.226;2024-03-08T11:48:46;30.67;;;17.80;;
22652;SDS011;11493;43.344;26.226;2024-03-08T11:51:14;31.98;;;18.83;;
22652;SDS011;11493;43.344;26.226;2024-03-08T11:53:45;27.55;;;18.98;;
22652;SDS011;11493;43.344;26.226;2024-03-08T11:56:15;30.95;;;19.27;;
22652;SDS011;11493;43.344;26.226;2024-03-08T11:58:52;32.65;;;18.30;;
22652;SDS011;11493;43.344;26.226;2024-03-08T12:01:24;31.88;;;19.63;;
22652;SDS011;11493;43.344;26.226;2024-03-08T12:03:52;29.20;;;18.73;;
22652;SDS011;11493;43.344;26.226;2024-03-08T12:06:21;29.02;;;18.33;;
22652;SDS011;11493;43.344;26.226;2024-03-08T12:08:49;32.30;;;19.33;;
22652;SDS011;11493;43.344;26.226;2024-03-08T12:11:19;27.40;;;18.92;;
22652;SDS011;11493;43.344;26.226;2024-03-08T12:13:50;29.75;;;19.27;;
22652;SDS011;11493;43.344;26.226;2024-03-08T12:16:20;31.58;;;17.60;;
22652;SDS011;11493;43.344;26.226;2024-03-08T12:18:50;25.23;;;16.33;;
22652;SDS011;11493;43.344;26.226;2024-03-08T12:21:20;34.00;;;18.58;;
22652;SDS011;11493;43.344;26.226;2024-03-08T12:24:01;27.20;;;18.20;;
22652;SDS011;11493;43.344;26.226;2024-03-08T12:26:32;32.17;;;18.60;;
22652;SDS011;11493;43.344;26.226;2024-03-08T12:29:17;27.77;;;17.08;;
22652;SDS011;11493;43.344;26.226;2024-03-08T12:31:50;34.25;;;22.23;;
22652;SDS011;11493;43.344;26.226;2024-03-08T12:34:20;25.83;;;16.17;;
22652;SDS011;11493;43.344;26.226;2024-03-08T12:36:49;24.83;;;17.90;;
22652;SDS011;11493;43.344;26.226;2024-03-08T12:39:21;29.08;;;17.33;;
22652;SDS011;11493;43.344;26.226;2024-03-08T12:41:55;35.67;;;18.63;;
22652;SDS011;11493;43.344;26.226;2024-03-08T12:44:26;29.63;;;18.40;;
22652;SDS011;11493;43.344;26.226;2024-03-08T12:46:55;28.58;;;18.40;;
22652;SDS011;11493;43.344;26.226;2024-03-08T12:49:26;28.15;;;17.33;;
22652;SDS011;11493;43.344;26.226;2024-03-08T12:51:54;26.02;;;16.77;;
22652;SDS011;11493;43.344;26.226;2024-03-08T12:54:22;30.13;;;17.65;;
22652;SDS011;11493;43.344;26.226;2024-03-08T12:56:51;27.98;;;17.67;;
22652;SDS011;11493;43.344;26.226;2024-03-08T12:59:22;31.65;;;20.58;;
22652;SDS011;11493;43.344;26.226;2024-03-08T13:01:51;32.75;;;18.45;;
22652;SDS011;11493;43.344;26.226;2024-03-08T13:04:20;33.20;;;21.10;;
22652;SDS011;11493;43.344;26.226;2024-03-08T13:06:49;24.25;;;17.58;;
22652;SDS011;11493;43.344;26.226;2024-03-08T13:09:21;28.85;;;17.30;;
22652;SDS011;11493;43.344;26.226;2024-03-08T13:11:50;40.03;;;23.90;;
22652;SDS011;11493;43.344;26.226;2024-03-08T13:14:20;30.67;;;18.52;;
22652;SDS011;11493;43.344;26.226;2024-03-08T13:16:50;34.83;;;18.42;;
22652;SDS011;11493;43.344;26.226;2024-03-08T13:19:18;31.33;;;18.95;;
22652;SDS011;11493;43.344;26.226;2024-03-08T13:21:48;42.10;;;22.02;;
22652;SDS011;11493;43.344;26.226;2024-03-08T13:24:16;35.70;;;21.40;;
22652;SDS011;11493;43.344;26.226;2024-03-08T13:26:45;36.45;;;21.95;;
22652;SDS011;11493;43.344;26.226;2024-03-08T13:29:14;36.13;;;22.08;;
22652;SDS011;11493;43.344;26.226;2024-03-08T13:31:45;45.20;;;22.92;;
22652;SDS011;11493;43.344;26.226;2024-03-08T13:34:17;38.53;;;22.27;;
22652;SDS011;11493;43.344;26.226;2024-03-08T13:36:45;41.35;;;23.00;;
22652;SDS011;11493;43.344;26.226;2024-03-08T13:39:13;41.65;;;22.00;;
22652;SDS011;11493;43.344;26.226;2024-03-08T13:41:42;37.17;;;21.17;;
22652;SDS011;11493;43.344;26.226;2024-03-08T13:44:11;35.80;;;22.20;;
22652;SDS011;11493;43.344;26.226;2024-03-08T13:46:39;40.75;;;23.20;;
22652;SDS011;11493;43.344;26.226;2024-03-08T13:49:08;45.35;;;22.83;;
22652;SDS011;11493;43.344;26.226;2024-03-08T13:51:39;46.15;;;21.63;;
22652;SDS011;11493;43.344;26.226;2024-03-08T13:54:07;36.83;;;21.52;;
22652;SDS011;11493;43.344;26.226;2024-03-08T13:56:36;37.72;;;22.30;;
22652;SDS011;11493;43.344;26.226;2024-03-08T13:59:04;45.15;;;25.73;;
22652;SDS011;11493;43.344;26.226;2024-03-08T14:01:32;44.38;;;23.58;;
22652;SDS011;11493;43.344;26.226;2024-03-08T14:04:02;44.05;;;23.52;;
22652;SDS011;11493;43.344;26.226;2024-03-08T14:06:31;44.28;;;25.63;;
22652;SDS011;11493;43.344;26.226;2024-03-08T14:09:01;36.22;;;23.05;;
22652;SDS011;11493;43.344;26.226;2024-03-08T14:11:30;45.57;;;24.57;;
22652;SDS011;11493;43.344;26.226;2024-03-08T14:13:59;40.08;;;24.10;;
22652;SDS011;11493;43.344;26.226;2024-03-08T14:16:27;45.72;;;25.60;;
22652;SDS011;11493;43.344;26.226;2024-03-08T14:18:56;50.08;;;26.25;;
22652;SDS011;11493;43.344;26.226;2024-03-08T14:21:28;52.75;;;26.45;;
22652;SDS011;11493;43.344;26.226;2024-03-08T14:23:56;50.67;;;26.85;;
22652;SDS011;11493;43.344;26.226;2024-03-08T14:26:26;45.80;;;25.45;;
22652;SDS011;11493;43.344;26.226;2024-03-08T14:29:12;40.97;;;24.80;;